Time;durP1;ratioP1;P1;durP2;ratioP2;P2;SDS_P1;SDS_P2;PMS_P1;PMS_P2;Temp;Humidity;BMP_temperature;BMP_pressure;BME280_temperature;BME280_humidity;BME280_pressure;Samples;Min_cycle;Max_cycle;Signal;HPM_P1;HPM_P2
2021/09/12 00:01:11;;;;;;;13.13;8.77;;;;;;;15.03;100.00;100711.94;5020251;28;20049;-68
2021/09/12 00:03:55;;;;;;;13.98;9.05;;;;;;;15.01;100.00;100716.59;5019812;28;20147;-68
2021/09/12 00:06:39;;;;;;;11.88;9.80;;;;;;;14.97;100.00;100717.09;5034888;28;20116;-68
2021/09/12 00:09:23;;;;;;;10.13;8.77;;;;;;;14.93;100.00;100718.44;5019797;28;20103;-68
2021/09/12 00:12:07;;;;;;;9.45;7.65;;;;;;;14.87;100.00;100719.91;5034735;28;20051;-67
2021/09/12 00:14:51;;;;;;;11.40;8.10;;;;;;;14.82;100.00;100716.88;5034811;28;20087;-68
2021/09/12 00:17:35;;;;;;;12.27;7.38;;;;;;;14.81;100.00;100714.34;5019895;28;20056;-68
2021/09/12 00:20:20;;;;;;;10.00;8.00;;;;;;;14.76;100.00;100712.13;5019902;28;20511;-68
2021/09/12 00:23:04;;;;;;;8.90;7.75;;;;;;;14.74;100.00;100713.28;5019561;28;20523;-68
2021/09/12 00:25:47;;;;;;;10.70;7.95;;;;;;;14.71;100.00;100713.63;5019467;28;20566;-67
2021/09/12 00:28:31;;;;;;;9.30;7.55;;;;;;;14.66;100.00;100706.03;5034552;28;20091;-68
2021/09/12 00:31:15;;;;;;;8.85;6.93;;;;;;;14.62;100.00;100706.53;5034617;28;20052;-66
2021/09/12 00:33:59;;;;;;;10.55;6.57;;;;;;;14.59;100.00;100714.91;5019579;28;20128;-68
2021/09/12 00:36:44;;;;;;;9.77;7.13;;;;;;;14.55;100.00;100705.47;5033772;28;20526;-68
2021/09/12 00:39:29;;;;;;;8.18;6.65;;;;;;;14.52;100.00;100708.47;5019200;28;20424;-67
2021/09/12 00:42:13;;;;;;;8.77;6.75;;;;;;;14.49;100.00;100706.13;5034446;28;20056;-68
2021/09/12 00:44:57;;;;;;;11.95;7.50;;;;;;;14.47;100.00;100710.81;5019306;28;20048;-68
2021/09/12 00:47:41;;;;;;;8.88;7.10;;;;;;;14.46;100.00;100709.09;5034323;28;20051;-68
2021/09/12 00:50:24;;;;;;;9.77;6.68;;;;;;;14.43;100.00;100704.06;5019281;28;20056;-68
2021/09/12 00:53:08;;;;;;;7.60;6.45;;;;;;;14.41;100.00;100703.38;5019216;28;20052;-68
2021/09/12 00:55:53;;;;;;;9.27;7.18;;;;;;;14.36;100.00;100713.72;5032897;28;20052;-68
2021/09/12 00:58:39;;;;;;;7.75;6.95;;;;;;;14.34;100.00;100705.84;5032881;28;20099;-68
2021/09/12 01:01:25;;;;;;;11.98;7.88;;;;;;;14.30;100.00;100709.00;5019076;28;20064;-68
2021/09/12 01:04:10;;;;;;;13.63;9.25;;;;;;;14.25;100.00;100708.63;5033946;28;20476;-66
2021/09/12 01:06:54;;;;;;;16.00;9.23;;;;;;;14.22;100.00;100700.91;5018984;28;20128;-68
2021/09/12 01:09:38;;;;;;;18.30;11.43;;;;;;;14.23;100.00;100705.25;5018646;28;20056;-68
2021/09/12 01:12:23;;;;;;;13.73;11.18;;;;;;;14.27;100.00;100703.97;5018683;28;20052;-67
2021/09/12 01:15:07;;;;;;;10.43;9.32;;;;;;;14.29;100.00;100707.31;5018817;28;20048;-67
2021/09/12 01:17:51;;;;;;;13.38;7.85;;;;;;;14.25;100.00;100705.94;5033963;28;20044;-68
2021/09/12 01:20:35;;;;;;;14.07;8.15;;;;;;;14.27;100.00;100703.97;5018785;28;20107;-67
2021/09/12 01:23:19;;;;;;;12.23;9.02;;;;;;;14.31;100.00;100710.69;5018866;28;20538;-68
2021/09/12 01:26:03;;;;;;;16.20;9.48;;;;;;;14.37;100.00;100710.06;5018448;28;20051;-68
2021/09/12 01:28:48;;;;;;;20.73;11.50;;;;;;;14.44;100.00;100697.69;5018493;28;20053;-67
2021/09/12 01:31:33;;;;;;;13.60;9.73;;;;;;;14.46;100.00;100687.63;5004528;28;20095;-68
2021/09/12 01:34:17;;;;;;;11.05;8.77;;;;;;;14.46;100.00;100687.63;5032541;28;20044;-68
2021/09/12 01:37:01;;;;;;;12.43;8.73;;;;;;;14.46;100.00;100691.19;5018721;28;20071;-68
2021/09/12 01:39:44;;;;;;;10.75;7.35;;;;;;;14.44;100.00;100684.28;5018056;28;20049;-68
2021/09/12 01:42:28;;;;;;;16.25;9.00;;;;;;;14.42;100.00;100683.59;5032438;28;20107;-68
2021/09/12 01:45:12;;;;;;;14.55;8.85;;;;;;;14.40;100.00;100682.91;5018690;28;20064;-68
2021/09/12 01:48:00;;;;;;;13.65;8.60;;;;;;;14.36;100.00;100686.91;5033306;28;20060;-68
2021/09/12 01:50:44;;;;;;;22.90;9.40;;;;;;;14.30;100.00;100683.00;5032346;28;20091;-68
2021/09/12 01:53:27;;;;;;;9.02;8.13;;;;;;;14.29;100.00;100688.56;5017998;28;20522;-68
2021/09/12 01:56:12;;;;;;;10.05;8.18;;;;;;;14.19;100.00;100691.31;5033243;28;20049;-67
2021/09/12 01:58:55;;;;;;;12.40;9.57;;;;;;;14.14;100.00;100684.72;5035725;28;20080;-67
2021/09/12 02:01:39;;;;;;;10.88;7.88;;;;;;;14.08;100.00;100685.34;5025124;28;20103;-68
2021/09/12 02:04:23;;;;;;;11.57;8.13;;;;;;;14.04;100.00;100686.66;5039869;28;20518;-68
2021/09/12 02:07:07;;;;;;;12.38;7.85;;;;;;;14.06;100.00;100690.03;5024763;28;20064;-68
2021/09/12 02:09:51;;;;;;;10.50;8.30;;;;;;;14.03;100.00;100690.34;5024482;28;20083;-68
2021/09/12 02:12:35;;;;;;;12.38;8.50;;;;;;;14.03;100.00;100693.00;5039787;28;20112;-68
2021/09/12 02:15:19;;;;;;;10.38;7.95;;;;;;;14.03;100.00;100695.69;5024631;28;20115;-68
2021/09/12 02:18:03;;;;;;;15.18;9.00;;;;;;;14.05;100.00;100694.56;5039696;28;20049;-68
2021/09/12 02:20:47;;;;;;;12.20;8.70;;;;;;;14.07;100.00;100687.19;5039707;28;20103;-68
2021/09/12 02:23:31;;;;;;;53.35;9.45;;;;;;;14.17;100.00;100695.19;5024682;28;20107;-68
2021/09/12 02:26:15;;;;;;;44.35;8.77;;;;;;;14.16;100.00;100680.88;5039354;28;20515;-68
2021/09/12 02:28:59;;;;;;;65.75;9.10;;;;;;;14.16;100.00;100680.06;5024628;28;20128;-67
2021/09/12 02:31:43;;;;;;;16.75;8.85;;;;;;;14.17;100.00;100684.47;5039601;28;20148;-67
2021/09/12 02:34:27;;;;;;;10.23;7.90;;;;;;;14.18;100.00;100688.81;5038650;28;20052;-68
2021/09/12 02:37:11;;;;;;;18.25;7.88;;;;;;;14.18;100.00;100686.13;5039556;28;20064;-67
2021/09/12 02:39:55;;;;;;;15.80;7.95;;;;;;;14.18;100.00;100672.72;5024308;28;20044;-68
2021/09/12 02:42:39;;;;;;;9.43;7.43;;;;;;;14.17;100.00;100673.72;5024467;28;20072;-68
2021/09/12 02:45:24;;;;;;;9.95;7.80;;;;;;;14.20;100.00;100684.13;5038673;28;20091;-68
2021/09/12 02:48:07;;;;;;;11.48;7.78;;;;;;;14.23;100.00;100681.13;5024295;28;20423;-67
2021/09/12 02:50:52;;;;;;;10.30;8.00;;;;;;;14.21;100.00;100678.63;5024091;28;20052;-68
2021/09/12 02:53:36;;;;;;;15.82;7.45;;;;;;;14.15;100.00;100681.03;5039316;28;20057;-68
2021/09/12 02:56:20;;;;;;;11.20;7.32;;;;;;;14.07;100.00;100681.00;5024351;28;20512;-68
2021/09/12 02:59:04;;;;;;;10.80;6.78;;;;;;;13.99;100.00;100684.44;5024261;28;20048;-68
2021/09/12 03:01:47;;;;;;;7.93;6.30;;;;;;;13.92;100.00;100682.53;5038026;28;20064;-68
2021/09/12 03:04:31;;;;;;;7.03;5.97;;;;;;;13.88;100.00;100681.19;5039303;28;20041;-68
2021/09/12 03:07:15;;;;;;;8.30;7.38;;;;;;;13.84;100.00;100687.81;5038010;28;20087;-68
2021/09/12 03:09:59;;;;;;;8.60;6.45;;;;;;;13.77;100.00;100684.09;5021658;28;20056;-68
2021/09/12 03:12:43;;;;;;;7.82;6.30;;;;;;;13.74;100.00;100677.22;5021100;28;20043;-68
2021/09/12 03:15:28;;;;;;;6.93;6.22;;;;;;;13.71;100.00;100679.34;5020733;28;20064;-68
2021/09/12 03:18:12;;;;;;;6.43;5.75;;;;;;;13.66;100.00;100681.66;5020694;28;20043;-68
2021/09/12 03:20:56;;;;;;;8.63;6.53;;;;;;;13.63;100.00;100677.44;5035008;28;20115;-68
2021/09/12 03:23:39;;;;;;;7.45;6.10;;;;;;;13.59;100.00;100680.59;5035934;28;20044;-67
2021/09/12 03:26:23;;;;;;;5.95;5.32;;;;;;;13.58;100.00;100684.25;5035771;28;20091;-68
2021/09/12 03:29:07;;;;;;;6.03;5.40;;;;;;;13.57;100.00;100671.88;5020575;28;20068;-68
2021/09/12 03:31:51;;;;;;;5.88;5.03;;;;;;;13.58;100.00;100673.53;5020791;28;20084;-68
2021/09/12 03:34:35;;;;;;;5.40;4.85;;;;;;;13.57;100.00;100672.69;5020500;28;20095;-67
2021/09/12 03:37:19;;;;;;;6.28;5.68;;;;;;;13.51;100.00;100669.78;5034394;28;20055;-68
2021/09/12 03:40:03;;;;;;;11.15;5.20;;;;;;;13.51;100.00;100673.31;5045562;23;20063;-71
2021/09/12 03:42:48;;;;;;;6.13;5.53;;;;;;;13.49;100.00;100669.97;5020446;28;20083;-70
2021/09/12 03:45:31;;;;;;;5.80;5.20;;;;;;;13.48;100.00;100670.09;5020833;28;20063;-70
2021/09/12 03:48:16;;;;;;;5.40;4.90;;;;;;;13.42;100.00;100676.06;5034467;28;20548;-68
2021/09/12 03:51:00;;;;;;;7.30;5.57;;;;;;;13.37;100.00;100667.66;5015420;28;20052;-70
2021/09/12 03:53:44;;;;;;;6.95;5.55;;;;;;;13.34;100.00;100678.69;5015360;28;20091;-70
2021/09/12 03:56:28;;;;;;;5.90;5.25;;;;;;;13.29;100.00;100672.91;5015636;28;20129;-70
2021/09/12 03:59:12;;;;;;;6.28;5.20;;;;;;;13.28;100.00;100665.88;5015660;28;20133;-70
2021/09/12 04:01:56;;;;;;;6.05;5.13;;;;;;;13.28;100.00;100665.88;5000482;28;20049;-70
2021/09/12 04:04:40;;;;;;;5.32;4.82;;;;;;;13.25;100.00;100664.34;5015144;28;20100;-70
2021/09/12 04:07:24;;;;;;;7.07;5.88;;;;;;;13.26;100.00;100668.69;5015109;28;20100;-70
2021/09/12 04:10:08;;;;;;;10.15;6.15;;;;;;;13.30;100.00;100672.78;5014003;28;20061;-70
2021/09/12 04:12:52;;;;;;;7.13;5.25;;;;;;;13.34;100.00;100676.00;5000107;28;20072;-70
2021/09/12 04:15:36;;;;;;;5.70;5.05;;;;;;;13.35;100.00;100670.47;5014185;28;20049;-70
2021/09/12 04:18:20;;;;;;;4.85;4.38;;;;;;;13.37;100.00;100670.34;5000062;28;20057;-70
2021/09/12 04:21:04;;;;;;;9.27;5.88;;;;;;;13.35;100.00;100673.16;4999778;28;20466;-70
2021/09/12 04:23:48;;;;;;;8.02;5.40;;;;;;;13.34;100.00;100673.31;5000168;28;20152;-70
2021/09/12 04:26:32;;;;;;;7.68;6.45;;;;;;;13.35;100.00;100675.00;4999888;28;20125;-70
2021/09/12 04:29:16;;;;;;;9.65;5.75;;;;;;;13.37;100.00;100681.03;4986409;28;20469;-70
2021/09/12 04:32:00;;;;;;;8.48;5.75;;;;;;;13.38;100.00;100680.88;4986553;28;20140;-68
2021/09/12 04:34:47;;;;;;;;;;;;;;;13.36;100.00;100682.03;5000273;28;20563;-70
2021/09/12 04:37:31;;;;;;;14.55;5.32;;;;;;;13.36;100.00;100676.69;5000230;28;19936;-70
2021/09/12 04:40:15;;;;;;;18.10;6.03;;;;;;;13.34;100.00;100681.34;5014359;28;20049;-69
2021/09/12 04:42:59;;;;;;;7.82;5.88;;;;;;;13.29;100.00;100687.16;4999852;28;20049;-71
2021/09/12 04:45:43;;;;;;;11.60;5.65;;;;;;;13.25;100.00;100682.25;4999842;28;20045;-70
2021/09/12 04:48:26;;;;;;;6.43;5.72;;;;;;;13.24;100.00;100691.28;4999642;28;20048;-69
2021/09/12 04:51:10;;;;;;;6.53;5.57;;;;;;;13.25;100.00;100680.41;4999438;28;20420;-70
2021/09/12 04:53:55;;;;;;;6.55;4.75;;;;;;;13.24;100.00;100675.22;5014431;28;20104;-70
2021/09/12 04:56:39;;;;;;;8.10;5.25;;;;;;;13.24;100.00;100680.59;4999706;28;20053;-70
2021/09/12 04:59:23;;;;;;;6.80;5.30;;;;;;;13.22;100.00;100680.72;4999307;28;20048;-70
2021/09/12 05:02:07;;;;;;;5.88;5.18;;;;;;;13.19;100.00;100690.88;5014396;28;20052;-70
2021/09/12 05:04:51;;;;;;;4.97;4.47;;;;;;;13.15;100.00;100692.19;4999207;28;20412;-70
2021/09/12 05:07:35;;;;;;;7.55;5.35;;;;;;;13.10;100.00;100686.44;5013042;28;20112;-70
2021/09/12 05:10:19;;;;;;;7.10;4.60;;;;;;;13.06;100.00;100682.38;5014200;28;20424;-70
2021/09/12 05:13:02;;;;;;;6.18;5.03;;;;;;;13.05;100.00;100686.06;5014175;28;20417;-70
2021/09/12 05:15:46;;;;;;;5.53;5.03;;;;;;;13.00;100.00;100682.97;4999228;28;20080;-70
2021/09/12 05:18:31;;;;;;;6.05;5.40;;;;;;;13.01;100.00;100684.66;4999231;28;20049;-70
2021/09/12 05:21:15;;;;;;;15.20;5.60;;;;;;;13.00;100.00;100682.97;4999140;28;20057;-70
2021/09/12 05:23:59;;;;;;;6.15;5.55;;;;;;;13.00;100.00;100677.59;4999081;28;20087;-70
2021/09/12 05:26:42;;;;;;;6.13;5.43;;;;;;;13.06;100.00;100682.38;5012689;28;20056;-70
2021/09/12 05:29:26;;;;;;;5.78;4.93;;;;;;;13.04;100.00;100679.00;5013587;28;20131;-70
2021/09/12 05:32:10;;;;;;;5.53;4.72;;;;;;;13.07;100.00;100679.53;4998749;28;20079;-70
2021/09/12 05:34:54;;;;;;;14.65;6.20;;;;;;;13.10;100.00;100689.97;5013242;28;20049;-70
2021/09/12 05:37:38;;;;;;;8.90;6.07;;;;;;;13.01;100.00;100684.66;4998984;28;20112;-71
2021/09/12 05:40:22;;;;;;;12.32;5.68;;;;;;;13.07;100.00;100689.41;4998502;28;20096;-71
2021/09/12 05:43:06;;;;;;;6.72;6.03;;;;;;;13.05;100.00;100686.06;4998907;28;20052;-71
2021/09/12 05:45:49;;;;;;;6.93;5.57;;;;;;;13.06;100.00;100688.56;5013752;28;20096;-71
2021/09/12 05:48:33;;;;;;;5.50;4.95;;;;;;;13.10;100.00;100689.97;5013730;28;20053;-71
2021/09/12 05:51:17;;;;;;;5.90;5.20;;;;;;;13.16;100.00;100693.88;4998807;28;20052;-71
2021/09/12 05:54:01;;;;;;;6.43;5.45;;;;;;;13.19;100.00;100696.22;5012592;28;20049;-71
2021/09/12 05:56:46;;;;;;;5.60;5.10;;;;;;;13.24;100.00;100691.28;4998765;28;20137;-70
2021/09/12 05:59:30;;;;;;;5.85;5.25;;;;;;;13.30;100.00;100694.19;5013407;28;20099;-71
2021/09/12 06:02:16;;;;;;;6.32;5.70;;;;;;;13.37;100.00;100697.94;5013537;28;20049;-70
2021/09/12 06:05:03;;;;;;;5.57;5.05;;;;;;;13.46;100.00;100697.03;5013481;28;20452;-71
2021/09/12 06:07:47;;;;;;;6.53;5.43;;;;;;;13.54;100.00;100698.94;4999262;28;20064;-70
2021/09/12 06:10:31;;;;;;;5.70;5.10;;;;;;;13.62;100.00;100696.34;4998585;28;20052;-71
2021/09/12 06:13:15;;;;;;;7.15;5.70;;;;;;;13.73;100.00;100698.78;4998677;28;20049;-71
2021/09/12 06:15:59;;;;;;;5.53;4.97;;;;;;;13.83;100.00;100703.09;4998405;28;20041;-71
2021/09/12 06:18:43;;;;;;;5.47;4.97;;;;;;;13.95;100.00;100701.84;4999014;28;20045;-71
2021/09/12 06:21:27;;;;;;;5.85;4.72;;;;;;;14.09;100.00;100703.94;4998618;28;20048;-70
2021/09/12 06:24:11;;;;;;;6.93;5.72;;;;;;;14.24;100.00;100706.94;4998610;28;20455;-71
2021/09/12 06:26:55;;;;;;;6.07;5.45;;;;;;;14.41;100.00;100706.06;5012409;28;20123;-71
2021/09/12 06:29:39;;;;;;;6.05;5.40;;;;;;;14.54;100.00;100709.16;4998364;28;20429;-71
2021/09/12 06:32:22;;;;;;;5.85;5.25;;;;;;;14.62;100.00;100710.06;4998458;28;20052;-71
2021/09/12 06:35:07;;;;;;;5.80;5.18;;;;;;;14.72;100.00;100710.78;4998213;28;20064;-70
2021/09/12 06:37:51;;;;;;;5.65;5.13;;;;;;;14.79;100.00;100708.31;4998386;28;20558;-70
2021/09/12 06:40:34;;;;;;;6.38;5.78;;;;;;;14.87;100.00;100708.31;5012986;28;20049;-70
2021/09/12 06:43:19;;;;;;;5.80;5.30;;;;;;;14.93;100.00;100710.38;5013146;28;20053;-71
2021/09/12 06:46:02;;;;;;;5.88;5.28;;;;;;;15.01;100.00;100699.66;5015996;28;20041;-70
2021/09/12 06:48:46;;;;;;;6.32;5.40;;;;;;;15.03;100.00;100706.56;5001860;28;20516;-71
2021/09/12 06:51:30;;;;;;;6.57;5.65;;;;;;;15.14;100.00;100708.09;5016028;28;20052;-70
2021/09/12 06:54:14;;;;;;;8.25;6.88;;;;;;;15.23;100.00;100715.19;5016350;28;20108;-70
2021/09/12 06:56:58;;;;;;;6.95;6.30;;;;;;;15.28;100.00;100712.84;5001784;28;20143;-70
2021/09/12 06:59:42;;;;;;;7.43;6.32;;;;;;;15.29;100.00;100715.38;5001685;28;20060;-69
2021/09/12 07:02:26;;;;;;;13.40;6.72;;;;;;;15.28;100.00;100712.84;5016346;28;20064;-70
2021/09/12 07:05:10;;;;;;;7.65;6.85;;;;;;;15.34;100.00;100707.72;5016257;28;20045;-71
2021/09/12 07:07:54;;;;;;;7.15;6.45;;;;;;;15.42;100.00;100714.94;5001572;28;20496;-70
2021/09/12 07:10:38;;;;;;;8.13;7.15;;;;;;;15.53;100.00;100717.31;5001282;28;20083;-68
2021/09/12 07:13:22;;;;;;;7.30;6.60;;;;;;;15.55;100.00;100715.31;5001727;28;20052;-70
2021/09/12 07:16:06;;;;;;;8.35;7.40;;;;;;;15.71;100.00;100717.00;5001459;28;20041;-70
2021/09/12 07:18:50;;;;;;;7.97;7.07;;;;;;;15.82;100.00;100716.69;5015070;28;20624;-70
2021/09/12 07:21:35;;;;;;;7.95;7.13;;;;;;;15.92;100.00;100714.69;5016217;28;20103;-70
2021/09/12 07:24:18;;;;;;;8.82;7.82;;;;;;;15.96;100.00;100721.38;5001507;28;20056;-70
2021/09/12 07:27:02;;;;;;;7.30;6.60;;;;;;;16.04;100.00;100718.72;5015202;28;20076;-71
2021/09/12 07:29:46;;;;;;;7.22;6.53;;;;;;;16.14;100.00;100719.38;5014724;28;20048;-71
2021/09/12 07:32:30;;;;;;;7.28;6.57;;;;;;;16.25;100.00;100718.19;5001171;28;20516;-70
2021/09/12 07:35:14;;;;;;;7.90;7.10;;;;;;;16.40;100.00;100720.03;5000822;28;20045;-70
2021/09/12 07:37:59;;;;;;;9.10;7.63;;;;;;;16.47;100.00;100718.34;5001114;28;20053;-70
2021/09/12 07:40:43;;;;;;;9.15;7.25;;;;;;;16.51;100.00;100711.66;5000819;28;20115;-70
2021/09/12 07:43:27;;;;;;;8.85;7.15;;;;;;;16.55;100.00;100723.72;5000902;28;20053;-70
2021/09/12 07:46:11;;;;;;;7.97;6.50;;;;;;;16.61;100.00;100722.22;5000894;28;20053;-70
2021/09/12 07:48:55;;;;;;;8.63;7.75;;;;;;;16.71;100.00;100723.72;5000529;28;20068;-70
2021/09/12 07:51:39;;;;;;;8.70;7.80;;;;;;;16.79;100.00;100726.34;5015377;28;20068;-70
2021/09/12 07:54:23;;;;;;;8.70;7.78;;;;;;;16.86;100.00;100721.97;5000695;28;20069;-70
2021/09/12 07:57:07;;;;;;;10.27;7.97;;;;;;;16.98;100.00;100727.81;4999985;28;20184;-71
2021/09/12 07:59:51;;;;;;;9.05;8.07;;;;;;;17.05;100.00;100728.78;5000294;28;20125;-70
2021/09/12 08:02:35;;;;;;;9.05;7.40;;;;;;;17.16;100.00;100729.25;5000185;28;20137;-70
2021/09/12 08:05:19;;;;;;;15.48;7.45;;;;;;;17.24;100.00;100723.00;5000301;28;20056;-70
2021/09/12 08:08:03;;;;;;;9.02;7.60;;;;;;;17.35;100.00;100726.16;5000482;28;20116;-70
2021/09/12 08:10:47;;;;;;;8.40;7.40;;;;;;;17.44;100.00;100727.81;5014985;28;20507;-70
2021/09/12 08:13:31;;;;;;;9.30;7.93;;;;;;;17.53;100.00;100731.28;5014907;28;20566;-71
2021/09/12 08:16:15;;;;;;;9.40;8.13;;;;;;;17.55;100.00;100724.72;5000288;28;20092;-70
2021/09/12 08:18:59;;;;;;;9.10;7.57;;;;;;;17.68;100.00;100730.34;4985962;28;20515;-70
2021/09/12 08:21:43;;;;;;;7.75;6.95;;;;;;;17.74;100.00;100735.03;5000013;28;20096;-70
2021/09/12 08:24:27;;;;;;;8.52;7.13;;;;;;;17.84;100.00;100732.94;5000144;28;20524;-70
2021/09/12 08:27:10;;;;;;;8.15;6.30;;;;;;;17.92;100.00;100737.44;4999867;28;20068;-68
2021/09/12 08:29:54;;;;;;;10.30;6.28;;;;;;;18.05;100.00;100733.13;4999993;28;20168;-70
2021/09/12 08:32:38;;;;;;;8.88;4.90;;;;;;;18.10;100.00;100736.09;5000168;28;20056;-70
2021/09/12 08:35:22;;;;;;;7.18;5.70;;;;;;;18.18;100.00;100730.66;4999968;28;20052;-70
2021/09/12 08:38:06;;;;;;;;;;;;;;;18.30;100.00;100737.31;5000449;28;20048;-68
2021/09/12 08:40:55;;;;;;;5.80;4.80;;;;;;;18.44;100.00;100734.66;4999967;28;19919;-69
2021/09/12 08:43:40;;;;;;;8.02;5.82;;;;;;;18.64;100.00;100729.53;4999544;28;20048;-70
2021/09/12 08:46:24;;;;;;;6.30;5.22;;;;;;;18.81;100.00;100731.06;4999820;28;20064;-71
2021/09/12 08:49:08;;;;;;;5.85;4.78;;;;;;;18.95;100.00;100736.47;4999405;28;20061;-69
2021/09/12 08:51:51;;;;;;;5.32;4.20;;;;;;;19.10;100.00;100731.06;4999632;28;20141;-70
2021/09/12 08:54:36;;;;;;;6.38;4.68;;;;;;;19.25;100.00;100730.06;5013388;28;20112;-71
2021/09/12 08:57:20;;;;;;;4.30;3.90;;;;;;;19.38;96.54;100723.97;4999217;28;20055;-70
2021/09/12 09:00:14;;;;;;;5.28;3.88;;;;;;;19.56;96.61;100727.94;4999333;28;20133;-71
2021/09/12 09:03:03;;;;;;;6.40;4.93;;;;;;;19.66;94.22;100716.78;4999748;28;20064;-70
2021/09/12 09:05:48;;;;;;;5.55;4.38;;;;;;;19.84;92.64;100720.75;4999209;28;20145;-71
2021/09/12 09:08:32;;;;;;;5.13;4.32;;;;;;;20.07;92.28;100717.88;4998433;28;20095;-70
2021/09/12 09:11:36;;;;;;;4.82;3.72;;;;;;;20.35;89.23;100724.16;5012999;28;20049;-70
2021/09/12 09:14:21;;;;;;;4.00;3.60;;;;;;;20.65;87.79;100720.22;5014034;28;20125;-71
2021/09/12 09:17:18;;;;;;;5.05;4.38;;;;;;;20.95;86.92;100716.28;5014127;28;20464;-71
2021/09/12 09:20:03;;;;;;;4.85;3.63;;;;;;;21.24;84.92;100712.28;4998753;28;20049;-71
2021/09/12 09:22:48;;;;;;;4.50;4.10;;;;;;;21.57;85.61;100713.22;4985133;28;20053;-70
2021/09/12 09:25:33;;;;;;;4.60;3.60;;;;;;;21.95;79.91;100708.97;5013899;28;20126;-70
2021/09/12 09:28:17;;;;;;;3.80;3.40;;;;;;;22.30;77.89;100715.88;4999047;28;20129;-71
2021/09/12 09:31:02;;;;;;;;;;;;;;;22.68;73.83;100713.34;5013371;28;20571;-71
2021/09/12 09:33:46;;;;;;;3.10;2.80;;;;;;;23.24;66.28;100709.06;4998742;28;19935;-70
2021/09/12 09:36:30;;;;;;;3.92;2.50;;;;;;;23.82;60.28;100714.22;4998934;28;20507;-71
2021/09/12 09:39:33;;;;;;;2.97;2.67;;;;;;;24.92;57.95;100715.22;5027403;22;20207;-67
2021/09/12 09:42:37;;;;;;;2.72;2.28;;;;;;;26.76;53.52;100697.66;5052471;28;20530;-67
2021/09/12 09:45:21;;;;;;;;;;;;;;;29.39;45.04;100702.81;5052806;28;20128;-67
2021/09/12 09:48:12;;;;;;;3.72;2.28;;;;;;;32.15;39.17;100695.44;5038288;28;20346;-67
2021/09/12 09:50:57;;;;;;;2.25;2.05;;;;;;;34.62;35.24;100699.47;5052207;28;20052;-67
2021/09/12 09:53:42;;;;;;;2.72;2.17;;;;;;;36.29;32.28;100698.78;5051862;28;20099;-67
2021/09/12 09:56:28;;;;;;;2.00;1.90;;;;;;;37.66;27.88;100691.16;5052219;28;20056;-66
2021/09/12 09:59:15;;;;;;;1.80;1.70;;;;;;;39.00;26.35;100688.09;5066339;28;20462;-67
2021/09/12 10:01:59;;;;;;;3.13;2.22;;;;;;;40.14;25.34;100679.06;5052173;28;20059;-67
2021/09/12 10:04:43;;;;;;;2.28;1.88;;;;;;;41.04;24.45;100687.13;5052286;28;20048;-67
2021/09/12 10:07:27;;;;;;;2.00;1.77;;;;;;;41.60;22.88;100680.22;5051892;28;20055;-67
2021/09/12 10:10:14;;;;;;;2.70;1.80;;;;;;;41.99;21.50;100675.03;5052260;28;20102;-67
2021/09/12 10:13:02;;;;;;;1.67;1.58;;;;;;;42.39;20.76;100670.56;5037695;28;20068;-67
2021/09/12 10:15:50;;;;;;;3.88;1.80;;;;;;;43.02;19.88;100668.03;5065878;28;20175;-68
2021/09/12 10:18:35;;;;;;;2.65;1.90;;;;;;;42.66;20.05;100664.34;5051762;28;20056;-68
2021/09/12 10:21:27;;;;;;;3.00;1.92;;;;;;;43.02;19.26;100661.63;5055497;28;20108;-67
2021/09/12 10:24:11;;;;;;;1.98;1.80;;;;;;;43.80;19.07;100665.78;5041710;28;20044;-68
2021/09/12 10:26:55;;;;;;;3.38;1.70;;;;;;;44.26;18.78;100668.84;5055971;28;20518;-68
2021/09/12 10:29:46;;;;;;;4.13;2.17;;;;;;;44.35;19.00;100654.63;5056836;28;20518;-67
2021/09/12 10:32:33;;;;;;;2.42;2.22;;;;;;;44.78;19.29;100657.41;5069992;28;20518;-68
2021/09/12 10:35:26;;;;;;;2.45;2.10;;;;;;;45.03;18.79;100654.09;5055729;28;20087;-66
2021/09/12 10:38:11;;;;;;;2.88;2.28;;;;;;;45.20;18.01;100647.28;5055729;28;20115;-67
2021/09/12 10:40:55;;;;;;;2.80;2.40;;;;;;;44.99;17.88;100650.38;5056276;28;20419;-68
2021/09/12 10:43:47;;;;;;;3.08;2.88;;;;;;;44.80;17.88;100649.47;5056551;28;20407;-68
2021/09/12 10:46:31;;;;;;;2.13;2.03;;;;;;;43.80;17.88;100643.31;5056570;28;20112;-67
2021/09/12 10:49:15;;;;;;;3.10;2.22;;;;;;;40.85;20.50;100641.09;5055261;28;20107;-67
2021/09/12 10:52:00;;;;;;;2.20;2.00;;;;;;;40.74;21.36;100640.66;5055488;28;20467;-67
2021/09/12 10:55:09;;;;;;;2.33;2.05;;;;;;;42.09;20.49;100632.59;5055409;28;20040;-67
2021/09/12 10:57:53;;;;;;;2.42;2.10;;;;;;;43.17;20.39;100639.31;5056054;28;20106;-68
2021/09/12 11:00:37;;;;;;;3.47;2.03;;;;;;;44.27;18.91;100630.28;5056042;28;20573;-68
2021/09/12 11:03:21;;;;;;;2.30;2.00;;;;;;;44.97;18.32;100624.56;5041215;28;20064;-68
2021/09/12 11:06:16;;;;;;;2.45;2.22;;;;;;;42.84;19.19;100632.13;5056081;28;20036;-66
2021/09/12 11:09:01;;;;;;;2.33;1.98;;;;;;;40.41;21.99;100635.97;5054875;28;20052;-67
2021/09/12 11:11:46;;;;;;;2.30;2.10;;;;;;;38.25;23.62;100634.34;5055119;28;20067;-68
2021/09/12 11:14:30;;;;;;;2.85;1.77;;;;;;;36.34;25.83;100629.25;5055758;28;20090;-67
2021/09/12 11:17:14;;;;;;;2.10;1.80;;;;;;;34.57;27.43;100633.03;5054694;28;20114;-67
2021/09/12 11:19:58;;;;;;;2.55;1.73;;;;;;;33.28;29.26;100626.50;5055808;28;20052;-68
2021/09/12 11:22:51;;;;;;;2.28;2.08;;;;;;;32.52;31.07;100621.47;5054643;28;20068;-67
2021/09/12 11:25:35;;;;;;;6.55;5.57;;;;;;;34.26;29.69;100628.91;5055576;28;20124;-68
2021/09/12 11:28:23;;;;;;;5.38;2.72;;;;;;;36.78;25.72;100617.63;5054541;28;20099;-67
2021/09/12 11:31:07;;;;;;;2.20;1.83;;;;;;;39.02;22.72;100613.34;5053620;28;20055;-67
2021/09/12 11:33:51;;;;;;;1.80;1.70;;;;;;;38.74;22.88;100612.72;5054522;28;20052;-68
2021/09/12 11:36:43;;;;;;;2.30;1.70;;;;;;;38.91;22.50;100603.63;5055664;28;20110;-66
2021/09/12 11:39:33;;;;;;;1.88;1.73;;;;;;;40.54;21.62;100591.06;5055057;28;20052;-68
2021/09/12 11:42:18;;;;;;;1.75;1.65;;;;;;;41.54;19.52;100597.63;5054619;28;20055;-68
2021/09/12 11:45:14;;;;;;;3.72;1.85;;;;;;;39.26;21.25;100592.25;5055469;28;20044;-68
2021/09/12 11:47:58;;;;;;;4.10;1.70;;;;;;;40.60;21.39;100595.31;5068247;28;20423;-68
2021/09/12 11:50:42;;;;;;;2.10;1.90;;;;;;;41.44;20.07;100579.25;5054057;28;20465;-66
2021/09/12 11:53:27;;;;;;;1.80;1.70;;;;;;;41.66;19.63;100583.69;5039996;28;20102;-68
2021/09/12 11:56:11;;;;;;;2.47;1.80;;;;;;;41.93;20.14;100577.56;5040261;28;20140;-67
2021/09/12 11:58:55;;;;;;;2.03;1.83;;;;;;;41.71;20.06;100578.72;5054939;28;20099;-68
2021/09/12 12:01:40;;;;;;;1.92;1.70;;;;;;;41.38;19.98;100583.44;5040340;28;20044;-68
2021/09/12 12:04:27;;;;;;;1.98;1.88;;;;;;;39.72;21.20;100584.09;5053783;28;20044;-68
2021/09/12 12:07:11;;;;;;;2.13;1.80;;;;;;;39.16;21.74;100580.56;5053814;28;20121;-67
2021/09/12 12:09:55;;;;;;;2.30;1.90;;;;;;;37.98;22.96;100579.63;5067848;28;20044;-67
2021/09/12 12:12:39;;;;;;;2.45;1.67;;;;;;;37.80;23.15;100577.81;5039851;28;20103;-68
2021/09/12 12:15:34;;;;;;;2.58;1.80;;;;;;;38.82;22.73;100572.09;5053693;28;20510;-68
2021/09/12 12:18:20;;;;;;;2.47;1.70;;;;;;;39.63;21.42;100566.50;5054874;28;20549;-68
2021/09/12 12:21:11;;;;;;;2.55;1.70;;;;;;;40.25;20.32;100570.56;5053527;28;20083;-68
2021/09/12 12:23:55;;;;;;;2.38;1.90;;;;;;;40.46;20.71;100554.72;5053773;28;20056;-68
2021/09/12 12:26:44;;;;;;;1.80;1.70;;;;;;;41.53;19.54;100560.41;5054670;28;20124;-68
2021/09/12 12:29:29;;;;;;;2.00;1.80;;;;;;;39.71;21.06;100557.34;5053579;28;20462;-68
2021/09/12 12:32:13;;;;;;;2.33;1.88;;;;;;;38.92;21.85;100566.22;5053517;28;20052;-67
2021/09/12 12:35:13;;;;;;;2.20;2.00;;;;;;;38.17;22.90;100560.75;5054513;28;20052;-68
2021/09/12 12:37:58;;;;;;;2.22;2.03;;;;;;;35.80;25.01;100556.06;5067276;28;20051;-68
2021/09/12 12:40:41;;;;;;;2.50;1.90;;;;;;;33.86;28.30;100557.28;5052929;28;20087;-65